Time;durP1;ratioP1;P1;durP2;ratioP2;P2;SDS_P1;SDS_P2;PMS_P1;PMS_P2;Temp;Humidity;BMP_temperature;BMP_pressure;BME280_temperature;BME280_humidity;BME280_pressure;Samples;Min_cycle;Max_cycle;Signal;HPM_P1;HPM_P2
2023/01/10 00:00:21;;;;;;;0.00;0.00;;;;;;;2.84;100.00;100230.53;6099636;23;20016;-75
2023/01/10 00:02:47;;;;;;;0.00;0.00;;;;;;;2.86;100.00;100233.00;6150913;23;20064;-74
2023/01/10 00:05:12;;;;;;;0.00;0.00;;;;;;;2.89;100.00;100232.56;6121998;23;20037;-75
2023/01/10 00:07:38;;;;;;;0.00;0.00;;;;;;;3.00;100.00;100260.75;6125187;23;20018;-74
2023/01/10 00:10:03;;;;;;;0.00;0.00;;;;;;;2.97;100.00;100254.75;6096196;23;20021;-75
2023/01/10 00:15:13;;;;;;;0.00;0.00;;;;;;;2.93;100.00;100277.81;6105747;23;20016;-75
2023/01/10 00:17:39;;;;;;;0.00;0.00;;;;;;;2.87;100.00;100273.31;6123581;23;20009;-74
2023/01/10 00:20:05;;;;;;;0.10;0.10;;;;;;;2.68;100.00;100252.69;6124752;23;20009;-75
2023/01/10 00:22:30;;;;;;;0.00;0.00;;;;;;;2.81;100.00;100276.88;6125353;23;20372;-75
2023/01/10 00:24:55;;;;;;;0.00;0.00;;;;;;;2.76;100.00;100274.00;6126580;23;20036;-75
2023/01/10 00:27:21;;;;;;;0.00;0.00;;;;;;;2.74;100.00;100268.00;6121839;23;20072;-74
2023/01/10 00:29:48;;;;;;;0.00;0.00;;;;;;;2.73;100.00;100255.53;6102250;23;20021;-74
2023/01/10 00:32:14;;;;;;;0.00;0.00;;;;;;;2.80;100.00;100253.63;6146737;23;20016;-74
2023/01/10 00:34:39;;;;;;;0.10;0.10;;;;;;;2.83;100.00;100253.19;6151142;23;20009;-74
2023/01/10 00:37:05;;;;;;;0.00;0.00;;;;;;;2.81;100.00;100241.78;6148000;23;20009;-76
2023/01/10 00:39:30;;;;;;;0.00;0.00;;;;;;;2.84;100.00;100257.53;6149154;23;20064;-74
2023/01/10 00:44:41;;;;;;;0.00;0.00;;;;;;;2.82;100.00;100251.53;6151417;23;20079;-76
2023/01/10 00:47:07;;;;;;;0.00;0.00;;;;;;;2.83;100.00;100255.88;6146892;23;20084;-75
2023/01/10 00:49:32;;;;;;;0.00;0.00;;;;;;;2.91;100.00;100269.13;6146311;23;20005;-75
2023/01/10 00:51:58;;;;;;;0.00;0.00;;;;;;;2.87;100.00;100267.91;6124324;23;20340;-76
2023/01/10 00:54:24;;;;;;;0.00;0.00;;;;;;;2.96;100.00;100280.13;6149618;23;20010;-75
2023/01/10 00:56:49;;;;;;;0.00;0.00;;;;;;;2.90;100.00;100272.03;6146092;23;20032;-76
2023/01/10 00:59:15;;;;;;;0.00;0.00;;;;;;;2.93;100.00;100277.00;6151709;23;20076;-75
2023/01/10 01:01:40;;;;;;;0.00;0.00;;;;;;;2.99;100.00;100286.94;6117507;23;20574;-76
2023/01/10 01:04:06;;;;;;;0.00;0.00;;;;;;;2.95;100.00;100274.94;6126057;23;20537;-75
2023/01/10 01:06:31;;;;;;;0.10;0.10;;;;;;;2.97;100.00;100284.44;6136204;23;20022;-75
2023/01/10 01:08:56;;;;;;;0.00;0.00;;;;;;;3.00;100.00;100293.19;6148838;23;20020;-75
2023/01/10 01:11:22;;;;;;;0.00;0.00;;;;;;;2.95;100.00;100289.25;6150608;23;20012;-75
2023/01/10 01:13:47;;;;;;;0.00;0.00;;;;;;;2.96;100.00;100282.81;6121420;23;20104;-76
2023/01/10 01:16:13;;;;;;;0.00;0.00;;;;;;;2.94;100.00;100267.88;6127138;23;20424;-74
2023/01/10 01:18:38;;;;;;;0.00;0.00;;;;;;;3.01;100.00;100267.81;6118645;23;20018;-75
2023/01/10 01:21:04;;;;;;;0.10;0.10;;;;;;;3.08;100.00;100279.38;6127409;23;20088;-76
2023/01/10 01:23:32;;;;;;;0.10;0.10;;;;;;;3.12;100.00;100272.50;6120669;23;20021;-75
2023/01/10 01:25:58;;;;;;;0.10;0.10;;;;;;;3.18;100.00;100278.91;6150144;23;19997;-75
2023/01/10 01:28:23;;;;;;;0.00;0.00;;;;;;;3.21;100.00;100283.84;6102372;23;20065;-76
2023/01/10 01:30:49;;;;;;;0.00;0.00;;;;;;;3.27;100.00;100281.13;6100823;23;20013;-75
2023/01/10 01:33:15;;;;;;;0.00;0.00;;;;;;;3.29;100.00;100276.31;6151069;23;20484;-75
2023/01/10 01:35:46;;;;;;;0.10;0.10;;;;;;;3.38;100.00;100276.03;6147326;23;20006;-76
2023/01/10 01:38:12;;;;;;;0.00;0.00;;;;;;;3.40;100.00;100265.81;6151065;23;20009;-75
2023/01/10 01:40:40;;;;;;;0.00;0.00;;;;;;;3.44;100.00;100269.72;6124546;23;20009;-75
2023/01/10 01:43:21;;;;;;;0.10;0.10;;;;;;;3.47;100.00;100269.28;6153968;23;20005;-76
2023/01/10 01:45:47;;;;;;;0.00;0.00;;;;;;;3.47;100.00;100266.56;6147555;23;20009;-76
2023/01/10 01:48:24;;;;;;;0.00;0.00;;;;;;;3.48;100.00;100255.53;6105427;23;20009;-75
2023/01/10 01:51:03;;;;;;;0.00;0.00;;;;;;;3.55;100.00;100258.19;6150886;23;20405;-76
2023/01/10 01:53:36;;;;;;;0.00;0.00;;;;;;;3.62;100.00;100258.94;6126218;23;20028;-75
2023/01/10 01:56:11;;;;;;;0.00;0.00;;;;;;;3.73;100.00;100260.06;6159215;23;20001;-76
2023/01/10 01:58:47;;;;;;;0.00;0.00;;;;;;;3.84;100.00;100250.38;6129468;23;20504;-74
2023/01/10 02:01:14;;;;;;;0.10;0.10;;;;;;;4.00;100.00;100259.75;6153844;23;20302;-76
2023/01/10 02:03:44;;;;;;;0.00;0.00;;;;;;;4.12;100.00;100257.13;6150090;23;20016;-75
2023/01/10 02:06:10;;;;;;;0.00;0.00;;;;;;;4.18;100.00;100265.16;6137250;23;20096;-75
2023/01/10 02:08:40;;;;;;;0.00;0.00;;;;;;;4.26;100.00;100274.84;6144117;23;20103;-75
2023/01/10 02:11:09;;;;;;;0.00;0.00;;;;;;;4.28;100.00;100278.16;6153111;23;20012;-76
2023/01/10 02:13:40;;;;;;;0.00;0.00;;;;;;;4.29;100.00;100274.41;6146340;23;20017;-76
2023/01/10 02:16:06;;;;;;;0.10;0.10;;;;;;;4.28;100.00;100258.38;6148716;23;20001;-76
2023/01/10 02:18:32;;;;;;;0.00;0.00;;;;;;;4.31;100.00;100255.22;6148170;23;20032;-76
2023/01/10 02:21:16;;;;;;;0.00;0.00;;;;;;;4.36;100.00;100248.03;6129124;23;20425;-76
2023/01/10 02:24:15;;;;;;;0.10;0.10;;;;;;;4.37;100.00;100247.00;6123020;23;20350;-75
2023/01/10 02:26:47;;;;;;;0.00;0.00;;;;;;;4.38;100.00;100237.00;6125449;23;20017;-76
2023/01/10 02:29:41;;;;;;;0.00;0.00;;;;;;;4.42;100.00;100235.47;6129984;23;20037;-77
2023/01/10 02:32:27;;;;;;;0.00;0.00;;;;;;;4.46;100.00;100225.84;6122098;23;20029;-77
2023/01/10 02:34:59;;;;;;;0.10;0.10;;;;;;;4.51;100.00;100222.44;6149716;23;20014;-76
2023/01/10 02:37:59;;;;;;;0.00;0.00;;;;;;;4.55;100.00;100220.94;6123247;23;20005;-77
2023/01/10 02:40:42;;;;;;;0.00;0.00;;;;;;;4.66;100.00;100235.56;6124156;23;20009;-75
2023/01/10 02:43:18;;;;;;;0.00;0.00;;;;;;;4.77;100.00;100248.28;6151507;23;20051;-75
2023/01/10 02:45:49;;;;;;;0.00;0.00;;;;;;;4.92;100.00;100261.44;6147715;23;20016;-74
2023/01/10 02:48:16;;;;;;;0.10;0.10;;;;;;;4.98;100.00;100249.66;6149545;23;20001;-76
2023/01/10 02:50:41;;;;;;;0.00;0.00;;;;;;;5.15;100.00;100265.22;6150758;23;20012;-75
2023/01/10 02:53:32;;;;;;;0.00;0.00;;;;;;;5.25;100.00;100255.44;6120682;23;20014;-76
2023/01/10 02:56:22;;;;;;;0.00;0.00;;;;;;;5.38;100.00;100243.53;6151580;23;20005;-76
2023/01/10 02:59:29;;;;;;;0.00;0.00;;;;;;;5.44;100.00;100235.53;6151708;23;20054;-76
2023/01/10 03:02:13;;;;;;;0.00;0.00;;;;;;;5.46;100.00;100227.97;6122621;23;20009;-76
2023/01/10 03:05:22;;;;;;;0.00;0.00;;;;;;;5.44;100.00;100205.72;6123955;23;20224;-75
2023/01/10 03:08:08;;;;;;;0.00;0.00;;;;;;;5.44;100.00;100208.41;6151861;23;20072;-75
2023/01/10 03:10:45;;;;;;;0.00;0.00;;;;;;;5.41;100.00;100202.38;6105665;23;20010;-75
2023/01/10 03:13:16;;;;;;;0.00;0.00;;;;;;;5.35;100.00;100197.91;6146544;23;20009;-75
2023/01/10 03:15:43;;;;;;;0.00;0.00;;;;;;;5.40;100.00;100203.47;6151199;23;20009;-75
2023/01/10 03:18:14;;;;;;;0.00;0.00;;;;;;;5.36;100.00;100196.88;6147942;23;20013;-75
2023/01/10 03:20:44;;;;;;;0.00;0.00;;;;;;;5.37;100.00;100203.09;6154277;23;20005;-76
2023/01/10 03:23:12;;;;;;;0.00;0.00;;;;;;;5.33;100.00;100197.34;6126067;23;20009;-77
2023/01/10 03:25:39;;;;;;;0.00;0.00;;;;;;;5.34;100.00;100203.59;6148375;23;20328;-76
2023/01/10 03:28:06;;;;;;;0.00;0.00;;;;;;;5.35;100.00;100208.75;6125658;23;20080;-75
2023/01/10 03:30:47;;;;;;;0.00;0.00;;;;;;;5.42;100.00;100201.34;6150797;23;20516;-74
2023/01/10 03:33:16;;;;;;;0.00;0.00;;;;;;;5.44;100.00;100197.56;6148254;23;20002;-75
2023/01/10 03:36:09;;;;;;;0.00;0.00;;;;;;;5.44;100.00;100192.16;6150385;23;20012;-75
2023/01/10 03:38:46;;;;;;;0.10;0.10;;;;;;;5.37;100.00;100179.53;6145434;23;20012;-75
2023/01/10 03:41:17;;;;;;;0.00;0.00;;;;;;;5.32;100.00;100174.00;6152691;23;20001;-75
2023/01/10 03:46:57;;;;;;;0.00;0.00;;;;;;;5.23;100.00;100178.13;6152272;23;20451;-75
2023/01/10 03:49:24;;;;;;;0.00;0.00;;;;;;;5.16;100.00;100183.66;6150848;23;20001;-77
2023/01/10 03:51:51;;;;;;;0.00;0.00;;;;;;;5.05;100.00;100163.66;6149742;23;20036;-76
2023/01/10 03:54:16;;;;;;;0.00;0.00;;;;;;;5.06;100.00;100176.13;6073466;23;20010;-76
2023/01/10 03:56:46;;;;;;;0.00;0.00;;;;;;;4.99;100.00;100169.97;6126598;23;20775;-74
2023/01/10 03:59:12;;;;;;;0.10;0.10;;;;;;;4.97;100.00;100158.56;6144203;23;20033;-74
2023/01/10 04:01:37;;;;;;;0.00;0.00;;;;;;;5.02;100.00;100169.53;6125266;23;20014;-75
2023/01/10 04:04:03;;;;;;;0.00;0.00;;;;;;;5.03;100.00;100168.47;6120458;23;20009;-76
2023/01/10 04:06:29;;;;;;;0.00;0.00;;;;;;;4.98;100.00;100157.50;6124637;23;20061;-74
2023/01/10 04:08:54;;;;;;;0.08;0.08;;;;;;;5.00;100.00;100160.81;6125399;23;20010;-74
2023/01/10 04:11:20;;;;;;;0.00;0.00;;;;;;;5.01;100.00;100157.03;6145658;23;20092;-74
2023/01/10 04:13:45;;;;;;;0.00;0.00;;;;;;;4.97;100.00;100142.31;6125475;23;20005;-76
2023/01/10 04:16:11;;;;;;;0.00;0.00;;;;;;;5.01;100.00;100143.50;6145427;23;20020;-75
2023/01/10 04:18:36;;;;;;;0.00;0.00;;;;;;;5.00;100.00;100127.47;6100348;23;20005;-75
2023/01/10 04:21:02;;;;;;;0.00;0.00;;;;;;;5.06;100.00;100137.34;6122425;23;20013;-74
2023/01/10 04:23:27;;;;;;;0.00;0.00;;;;;;;5.07;100.00;100128.97;6101751;23;20084;-75
2023/01/10 04:25:52;;;;;;;0.00;0.00;;;;;;;5.11;100.00;100123.09;6124690;23;20005;-76
2023/01/10 04:28:18;;;;;;;0.00;0.00;;;;;;;5.15;100.00;100135.91;6121088;23;20006;-75
2023/01/10 04:30:43;;;;;;;0.00;0.00;;;;;;;5.18;100.00;100134.63;6100237;23;20017;-75
2023/01/10 04:33:10;;;;;;;0.00;0.00;;;;;;;5.21;100.00;100134.16;6121243;23;20060;-75
2023/01/10 04:35:36;;;;;;;0.00;0.00;;;;;;;5.23;100.00;100129.34;6122818;23;20006;-75
2023/01/10 04:38:01;;;;;;;0.00;0.00;;;;;;;5.23;100.00;100132.03;6147942;23;20012;-74
2023/01/10 04:40:26;;;;;;;0.00;0.00;;;;;;;5.30;100.00;100134.63;6123162;23;20699;-75
2023/01/10 04:42:52;;;;;;;0.08;0.08;;;;;;;5.26;100.00;100134.28;6124528;23;20005;-75
2023/01/10 04:45:19;;;;;;;0.00;0.00;;;;;;;5.30;100.00;100126.47;6122252;23;20024;-76
2023/01/10 04:47:55;;;;;;;0.10;0.10;;;;;;;5.28;100.00;100118.59;6099952;23;20068;-75
2023/01/10 04:50:21;;;;;;;0.00;0.00;;;;;;;5.29;100.00;100116.72;6121174;23;20073;-76
2023/01/10 04:52:47;;;;;;;0.00;0.00;;;;;;;5.31;100.00;100107.25;6123793;23;20009;-76
2023/01/10 04:55:12;;;;;;;0.00;0.00;;;;;;;5.32;100.00;100098.06;6145226;23;20010;-75
2023/01/10 04:57:37;;;;;;;0.10;0.10;;;;;;;5.37;100.00;100106.31;6099103;23;20021;-75
2023/01/10 05:00:03;;;;;;;0.00;0.00;;;;;;;5.34;100.00;100087.78;6098655;23;20763;-75
2023/01/10 05:02:29;;;;;;;0.00;0.00;;;;;;;5.35;100.00;100086.75;6090357;23;20032;-76
2023/01/10 05:04:54;;;;;;;0.00;0.00;;;;;;;5.36;100.00;100084.84;6152708;23;20096;-75
2023/01/10 05:07:20;;;;;;;0.10;0.10;;;;;;;5.38;100.00;100086.25;6144360;23;20360;-75
2023/01/10 05:09:45;;;;;;;0.10;0.10;;;;;;;5.38;100.00;100088.97;6098312;23;20508;-76
2023/01/10 05:12:11;;;;;;;0.00;0.00;;;;;;;5.39;100.00;100082.50;6146595;23;20024;-76
2023/01/10 05:14:36;;;;;;;0.00;0.00;;;;;;;5.40;100.00;100078.72;6123588;23;20016;-75
2023/01/10 05:17:01;;;;;;;0.00;0.00;;;;;;;5.42;100.00;100075.78;6150327;23;20009;-76
2023/01/10 05:19:27;;;;;;;0.00;0.00;;;;;;;5.44;100.00;100072.81;6120658;23;20005;-75
2023/01/10 05:21:52;;;;;;;0.00;0.00;;;;;;;5.49;100.00;100064.75;6100735;23;20005;-75
2023/01/10 05:24:18;;;;;;;0.00;0.00;;;;;;;5.55;100.00;100055.69;6120427;23;20006;-76
2023/01/10 05:26:43;;;;;;;0.00;0.00;;;;;;;5.51;100.00;100046.38;6124404;23;20133;-76
2023/01/10 05:29:13;;;;;;;0.00;0.00;;;;;;;5.56;100.00;100038.31;6149629;23;20013;-76
2023/01/10 05:31:39;;;;;;;0.00;0.00;;;;;;;5.56;100.00;100035.63;6145197;23;20017;-76
2023/01/10 05:34:05;;;;;;;0.00;0.00;;;;;;;5.58;100.00;100041.63;6149008;23;20005;-76
2023/01/10 05:36:30;;;;;;;0.00;0.00;;;;;;;5.53;100.00;100028.78;6143748;23;20024;-76
2023/01/10 05:38:56;;;;;;;0.00;0.00;;;;;;;5.52;100.00;100018.16;6122027;23;20553;-75
2023/01/10 05:41:22;;;;;;;0.00;0.00;;;;;;;5.56;100.00;100016.63;6124248;23;20013;-76
2023/01/10 05:43:48;;;;;;;0.00;0.00;;;;;;;5.61;100.00;100014.03;6095029;23;20009;-75
2023/01/10 05:46:14;;;;;;;0.10;0.10;;;;;;;5.59;100.00;99997.16;6124386;23;20088;-76
2023/01/10 05:48:39;;;;;;;0.00;0.00;;;;;;;5.60;100.00;99990.66;6121011;23;20089;-75
2023/01/10 05:51:05;;;;;;;0.00;0.00;;;;;;;5.66;100.00;99984.25;6133033;23;20033;-75
2023/01/10 05:53:31;;;;;;;0.00;0.00;;;;;;;5.69;100.00;99983.78;6119556;23;20029;-75
2023/01/10 05:55:58;;;;;;;0.10;0.10;;;;;;;5.74;100.00;99975.72;6124262;23;20009;-74
2023/01/10 05:58:24;;;;;;;0.00;0.00;;;;;;;5.78;100.00;99970.63;6149682;23;20009;-78
2023/01/10 06:00:50;;;;;;;0.00;0.00;;;;;;;5.80;100.00;99956.81;6122901;23;20033;-75
2023/01/10 06:03:17;;;;;;;0.00;0.00;;;;;;;5.91;100.00;99969.50;6150120;23;20002;-76
2023/01/10 06:05:43;;;;;;;0.00;0.00;;;;;;;5.97;100.00;99968.53;6147690;23;20008;-75
2023/01/10 06:08:08;;;;;;;0.00;0.00;;;;;;;5.99;100.00;99958.25;6149011;23;20025;-75
2023/01/10 06:10:34;;;;;;;0.00;0.00;;;;;;;6.03;100.00;99954.00;6147339;23;20010;-75
2023/01/10 06:12:59;;;;;;;0.00;0.00;;;;;;;6.03;100.00;99939.56;6150824;23;20034;-76
2023/01/10 06:15:25;;;;;;;0.00;0.00;;;;;;;6.12;100.00;99948.97;6069285;23;20014;-75
2023/01/10 06:17:51;;;;;;;0.00;0.00;;;;;;;6.07;100.00;99924.44;6100274;23;20009;-76
2023/01/10 06:20:16;;;;;;;0.00;0.00;;;;;;;6.10;100.00;99924.78;6125691;23;20040;-77
2023/01/10 06:22:42;;;;;;;0.00;0.00;;;;;;;6.10;100.00;99924.78;6097466;23;20014;-75
2023/01/10 06:25:12;;;;;;;0.10;0.10;;;;;;;6.14;100.00;99918.84;6101794;23;20006;-76
2023/01/10 06:27:40;;;;;;;0.10;0.10;;;;;;;6.12;100.00;99905.53;6127187;23;20008;-76
2023/01/10 06:30:06;;;;;;;0.10;0.10;;;;;;;6.11;100.00;99890.31;6147814;23;20092;-75
2023/01/10 06:32:32;;;;;;;0.00;0.00;;;;;;;6.18;100.00;99882.00;6152917;23;20084;-76
2023/01/10 06:34:57;;;;;;;0.10;0.10;;;;;;;6.18;100.00;99892.84;6122274;23;20076;-76
2023/01/10 06:37:23;;;;;;;0.00;0.00;;;;;;;6.16;100.00;99889.56;6080086;23;20021;-77
2023/01/10 06:39:50;;;;;;;0.00;0.00;;;;;;;6.32;100.00;99910.41;6122783;23;20017;-77
2023/01/10 06:42:15;;;;;;;0.08;0.08;;;;;;;6.34;100.00;99886.56;6151213;23;20021;-77
2023/01/10 06:44:41;;;;;;;0.00;0.00;;;;;;;6.18;100.00;99888.25;6125521;23;20002;-76
2023/01/10 06:47:06;;;;;;;0.00;0.00;;;;;;;6.28;100.00;99909.28;6147544;23;20016;-75
2023/01/10 06:49:32;;;;;;;0.00;0.00;;;;;;;6.32;100.00;99899.53;6078902;23;20754;-76
2023/01/10 06:51:57;;;;;;;0.00;0.00;;;;;;;6.28;100.00;99887.56;6119839;23;20027;-75
2023/01/10 06:54:22;;;;;;;0.00;0.00;;;;;;;6.28;100.00;99882.94;6077268;23;20016;-76
2023/01/10 06:56:48;;;;;;;0.10;0.10;;;;;;;6.27;100.00;99885.91;6122032;23;20020;-76
2023/01/10 06:59:13;;;;;;;0.00;0.00;;;;;;;6.27;100.00;99878.56;6150437;23;20009;-76
2023/01/10 07:01:39;;;;;;;0.00;0.00;;;;;;;6.31;100.00;99873.47;6100743;23;20017;-75
2023/01/10 07:04:04;;;;;;;0.03;0.03;;;;;;;6.32;100.00;99866.16;6096700;23;20005;-75
2023/01/10 07:06:36;;;;;;;0.10;0.10;;;;;;;6.25;100.00;99855.47;6130130;23;20021;-77
2023/01/10 07:09:09;;;;;;;0.00;0.00;;;;;;;6.24;100.00;99853.84;6121693;23;21111;-78
2023/01/10 07:11:34;;;;;;;0.00;0.00;;;;;;;6.24;100.00;99848.41;6126674;23;20487;-77
2023/01/10 07:14:00;;;;;;;0.00;0.00;;;;;;;6.23;100.00;99838.59;6123778;23;20001;-80
2023/01/10 07:16:29;;;;;;;0.00;0.00;;;;;;;6.17;100.00;99826.03;6114230;23;20013;-87
2023/01/10 07:18:54;;;;;;;0.00;0.00;;;;;;;6.20;100.00;99831.78;6153959;23;20013;-81
2023/01/10 07:21:22;;;;;;;0.00;0.00;;;;;;;6.24;100.00;99816.63;6132370;23;20006;-80
2023/01/10 07:23:51;;;;;;;0.00;0.00;;;;;;;6.36;100.00;99837.41;6129339;23;20006;-80
2023/01/10 07:26:46;;;;;;;0.00;0.00;;;;;;;6.38;100.00;99832.53;6100333;23;20012;-84
2023/01/10 07:29:14;;;;;;;0.00;0.00;;;;;;;6.36;100.00;99835.50;6131007;23;20032;-82
2023/01/10 07:31:39;;;;;;;0.00;0.00;;;;;;;6.27;100.00;99799.03;6151830;23;20096;-80
2023/01/10 07:34:08;;;;;;;0.00;0.00;;;;;;;6.29;100.00;99802.28;6128351;23;20044;-78
2023/01/10 07:36:35;;;;;;;0.00;0.00;;;;;;;6.28;100.00;99785.19;6123978;23;20116;-78
2023/01/10 07:39:11;;;;;;;;;;;;;;;;;;;;;
2023/01/10 07:42:04;;;;;;;0.00;0.00;;;;;;;6.25;100.00;99763.97;6148718;23;20092;-77
2023/01/10 07:44:37;;;;;;;0.10;0.10;;;;;;;6.22;100.00;99750.06;6124453;23;20009;-78
2023/01/10 07:47:20;;;;;;;0.00;0.00;;;;;;;6.15;100.00;99730.44;6122673;23;20064;-78
2023/01/10 07:49:45;;;;;;;0.00;0.00;;;;;;;6.38;100.00;99760.06;6126839;23;20745;-80
2023/01/10 07:52:22;;;;;;;0.10;0.10;;;;;;;6.24;100.00;99756.09;6125154;23;20009;-80
2023/01/10 07:54:50;;;;;;;0.00;0.00;;;;;;;6.32;100.00;99773.81;6105855;23;20016;-81
2023/01/10 07:57:18;;;;;;;0.00;0.00;;;;;;;6.29;100.00;99775.13;6100671;23;20014;-81
2023/01/10 07:59:44;;;;;;;0.00;0.00;;;;;;;6.34;100.00;99777.94;6129568;23;20052;-83
2023/01/10 08:02:13;;;;;;;0.00;0.00;;;;;;;6.40;100.00;99755.19;6104782;23;20080;-82
2023/01/10 08:04:56;;;;;;;0.00;0.00;;;;;;;6.34;100.00;99750.78;6128641;23;20479;-79
2023/01/10 08:07:28;;;;;;;0.00;0.00;;;;;;;6.46;100.00;99765.00;6102090;23;20448;-84
2023/01/10 08:10:04;;;;;;;0.00;0.00;;;;;;;6.49;100.00;99754.72;6110380;23;20005;-83
2023/01/10 08:12:30;;;;;;;0.00;0.00;;;;;;;6.44;100.00;99744.63;6127850;23;20016;-84
2023/01/10 08:14:55;;;;;;;0.00;0.00;;;;;;;6.54;100.00;99761.06;6131833;23;19981;-83
2023/01/10 08:17:43;;;;;;;0.00;0.00;;;;;;;6.52;100.00;99735.22;6130001;23;20036;-83
2023/01/10 08:20:24;;;;;;;0.10;0.10;;;;;;;6.61;100.00;99736.38;6132754;23;20023;-82
2023/01/10 08:22:57;;;;;;;0.08;0.08;;;;;;;6.52;100.00;99714.28;6154769;23;20009;-83
2023/01/10 08:25:32;;;;;;;0.00;0.00;;;;;;;6.49;100.00;99693.06;6132944;23;20083;-82
2023/01/10 08:27:57;;;;;;;0.00;0.00;;;;;;;6.59;100.00;99716.81;6106920;23;20009;-82
2023/01/10 08:30:23;;;;;;;0.00;0.00;;;;;;;6.60;100.00;99715.72;6156494;23;20016;-83
2023/01/10 08:36:28;;;;;;;0.10;0.10;;;;;;;6.64;100.00;99689.66;6159170;23;20036;-81
2023/01/10 08:39:19;;;;;;;;;;;;;;;;;;;;;
2023/01/10 08:41:53;;;;;;;0.00;0.00;;;;;;;6.91;100.00;99705.94;6154412;23;20823;-81
2023/01/10 08:44:37;;;;;;;;;;;;;;;;;;;;;
2023/01/10 08:47:16;;;;;;;0.00;0.00;;;;;;;6.96;100.00;99686.94;6152249;23;20076;-81
2023/01/10 08:49:59;;;;;;;0.00;0.00;;;;;;;6.93;100.00;99681.22;6155574;23;20010;-83
2023/01/10 08:52:39;;;;;;;0.00;0.00;;;;;;;7.01;100.00;99677.19;6152986;23;20115;-82
2023/01/10 08:55:08;;;;;;;0.00;0.00;;;;;;;7.01;100.00;99664.44;6154725;23;20012;-81
2023/01/10 08:57:33;;;;;;;0.00;0.00;;;;;;;7.11;100.00;99678.09;6157790;23;20459;-83
2023/01/10 08:59:59;;;;;;;0.00;0.00;;;;;;;7.18;100.00;99674.34;6146882;23;19997;-82
2023/01/10 09:02:24;;;;;;;0.00;0.00;;;;;;;7.15;100.00;99646.59;6154990;23;20017;-82
2023/01/10 09:04:50;;;;;;;0.00;0.00;;;;;;;7.28;100.00;99658.88;6131759;23;20084;-80
2023/01/10 09:07:18;;;;;;;0.00;0.00;;;;;;;7.33;100.00;99658.94;6126603;23;20029;-82
2023/01/10 09:09:54;;;;;;;;;;;;;;;;;;;;;
2023/01/10 09:15:07;;;;;;;0.10;0.10;;;;;;;7.44;100.00;99640.75;6155355;23;20444;-84
2023/01/10 09:17:35;;;;;;;0.00;0.00;;;;;;;7.46;100.00;99635.88;6131015;23;20013;-83
2023/01/10 09:20:04;;;;;;;0.00;0.00;;;;;;;7.53;100.00;99634.81;6131825;23;20040;-81
2023/01/10 09:22:30;;;;;;;0.10;0.10;;;;;;;7.63;100.00;99635.66;6146372;23;20001;-81
2023/01/10 09:24:56;;;;;;;0.08;0.08;;;;;;;7.59;100.00;99618.22;6154545;23;20006;-81
2023/01/10 09:27:29;;;;;;;0.00;0.00;;;;;;;7.75;100.00;99621.84;6152902;23;20012;-81
2023/01/10 09:30:10;;;;;;;;;;;;;;;;;;;;;
2023/01/10 09:32:38;;;;;;;0.00;0.00;;;;;;;7.74;100.00;99603.88;6155227;23;20104;-82
2023/01/10 09:35:04;;;;;;;0.00;0.00;;;;;;;7.93;100.00;99600.66;6125668;23;20006;-80
2023/01/10 09:37:32;;;;;;;0.00;0.00;;;;;;;8.00;100.00;99584.88;6151315;23;20069;-80
2023/01/10 09:39:58;;;;;;;0.00;0.00;;;;;;;8.00;100.00;99563.09;6126504;23;20089;-80
2023/01/10 09:43:01;;;;;;;0.00;0.00;;;;;;;8.18;100.00;99581.66;6103061;23;20198;-82
2023/01/10 09:46:19;;;;;;;;;;;;;;;;;;;;;
2023/01/10 09:48:55;;;;;;;0.00;0.00;;;;;;;8.26;100.00;99568.59;6158666;23;20020;-83
2023/01/10 09:52:09;;;;;;;0.00;0.00;;;;;;;8.34;100.00;99581.69;6167286;23;19993;-82
2023/01/10 09:54:59;;;;;;;0.00;0.00;;;;;;;8.33;100.00;99566.41;6114440;23;20092;-83
2023/01/10 09:57:32;;;;;;;0.00;0.00;;;;;;;8.31;100.00;99541.34;6151789;23;20006;-82
2023/01/10 10:00:00;;;;;;;0.00;0.00;;;;;;;8.24;100.00;99524.47;6133233;23;19997;-82
2023/01/10 10:02:43;;;;;;;0.00;0.00;;;;;;;8.40;100.00;99542.44;6154542;23;20010;-82
2023/01/10 10:05:27;;;;;;;0.00;0.00;;;;;;;8.46;100.00;99541.38;6157509;23;20001;-82
2023/01/10 10:08:01;;;;;;;0.00;0.00;;;;;;;8.54;100.00;99535.38;6147563;23;20021;-82
2023/01/10 10:10:40;;;;;;;0.00;0.00;;;;;;;8.61;100.00;99534.28;6154963;23;20009;-83
2023/01/10 10:13:37;;;;;;;0.00;0.00;;;;;;;8.65;100.00;99527.19;6158909;23;19997;-81
2023/01/10 10:16:41;;;;;;;0.00;0.00;;;;;;;8.85;100.00;99526.34;6117347;23;20220;-83
2023/01/10 10:19:21;;;;;;;0.00;0.00;;;;;;;8.99;100.00;99529.28;6070193;23;20010;-83
2023/01/10 10:22:21;;;;;;;0.00;0.00;;;;;;;9.18;100.00;99516.66;6098105;23;20331;-82
2023/01/10 10:25:07;;;;;;;0.00;0.00;;;;;;;9.31;100.00;99487.16;6097270;23;20002;-83
2023/01/10 10:31:07;;;;;;;0.00;0.00;;;;;;;10.20;100.00;99519.88;6068588;23;20038;-82
2023/01/10 10:34:10;;;;;;;0.00;0.00;;;;;;;10.57;100.00;99518.50;6103745;23;20008;-82
2023/01/10 10:36:49;;;;;;;0.00;0.00;;;;;;;10.67;100.00;99522.25;6131065;23;20008;-82
2023/01/10 10:39:22;;;;;;;0.00;0.00;;;;;;;10.71;100.00;99523.31;6133139;23;20009;-83
2023/01/10 10:42:09;;;;;;;;;;;;;;;;;;;;;
2023/01/10 10:44:58;;;;;;;0.00;0.00;;;;;;;10.96;100.00;99520.28;6157204;23;20029;-82
2023/01/10 10:47:32;;;;;;;0.00;0.00;;;;;;;10.96;100.00;99509.34;6134156;23;20336;-82
2023/01/10 10:50:22;;;;;;;0.00;0.00;;;;;;;11.03;100.00;99519.13;6153873;23;20009;-82
2023/01/10 10:52:48;;;;;;;0.00;0.00;;;;;;;10.83;100.00;99472.59;6132090;23;20008;-81
2023/01/10 10:55:50;;;;;;;;;;;;;;;;;;;;;
2023/01/10 10:58:19;;;;;;;0.00;0.00;;;;;;;11.12;100.00;99517.38;6154435;23;20041;-82
2023/01/10 11:00:45;;;;;;;0.00;0.00;;;;;;;11.06;100.00;99497.47;6133188;23;20389;-82
2023/01/10 11:03:42;;;;;;;;;;;;;;;;;;;;;
2023/01/10 11:06:19;;;;;;;0.00;0.00;;;;;;;11.05;100.00;99495.03;6159999;23;20052;-82
2023/01/10 11:08:48;;;;;;;0.00;0.00;;;;;;;11.05;100.00;99479.41;6157349;23;20017;-83
2023/01/10 11:11:32;;;;;;;0.00;0.00;;;;;;;11.10;100.00;99497.72;6160568;23;19996;-81
2023/01/10 11:14:54;;;;;;;;;;;;;;;;;;;;;
2023/01/10 11:17:32;;;;;;;0.00;0.00;;;;;;;11.06;100.00;99491.19;6155411;23;20322;-81
2023/01/10 11:20:00;;;;;;;0.00;0.00;;;;;;;11.06;100.00;99488.47;6133465;23;20009;-83
2023/01/10 11:23:06;;;;;;;0.00;0.00;;;;;;;11.00;100.00;99472.09;6129523;23;20112;-82
2023/01/10 11:25:34;;;;;;;0.00;0.00;;;;;;;11.11;100.00;99470.06;6155663;23;20025;-82
2023/01/10 11:28:00;;;;;;;0.00;0.00;;;;;;;11.04;100.00;99457.81;6125815;23;19994;-81
2023/01/10 11:30:30;;;;;;;0.00;0.00;;;;;;;11.31;100.00;99477.16;6121270;23;20013;-81
2023/01/10 11:33:00;;;;;;;0.00;0.00;;;;;;;11.29;100.00;99473.13;6128157;23;20139;-81
2023/01/10 11:35:32;;;;;;;0.00;0.00;;;;;;;11.33;100.00;99453.06;6156104;23;20033;-80
2023/01/10 11:38:23;;;;;;;0.00;0.00;;;;;;;11.34;100.00;99421.03;6130347;23;20002;-80
2023/01/10 11:41:32;;;;;;;0.00;0.00;;;;;;;11.64;100.00;99446.34;6129237;23;20017;-80
2023/01/10 11:44:43;;;;;;;0.00;0.00;;;;;;;11.73;100.00;99427.31;6087157;23;20008;-81
2023/01/10 11:47:13;;;;;;;0.00;0.00;;;;;;;12.36;100.00;99434.22;6067740;23;20016;-82
2023/01/10 11:49:42;;;;;;;0.00;0.00;;;;;;;13.35;100.00;99431.19;6129788;23;20014;-82
2023/01/10 11:52:35;;;;;;;0.00;0.00;;;;;;;14.26;100.00;99448.50;6124815;23;20345;-81
2023/01/10 11:55:06;;;;;;;0.00;0.00;;;;;;;14.50;100.00;99434.41;6128497;23;20005;-81
2023/01/10 11:57:34;;;;;;;0.10;0.10;;;;;;;15.11;100.00;99428.31;6153426;23;20625;-81
2023/01/10 12:00:06;;;;;;;0.00;0.00;;;;;;;14.93;100.00;99421.97;6105114;23;20020;-80
2023/01/10 12:02:44;;;;;;;0.00;0.00;;;;;;;14.62;100.00;99411.84;6154409;23;20076;-81
2023/01/10 12:05:38;;;;;;;0.00;0.00;;;;;;;14.61;100.00;99426.69;6132206;23;20118;-80
2023/01/10 12:08:09;;;;;;;;;;;;;;;14.17;100.00;99414.66;6083700;23;20030;-82
2023/01/10 12:10:56;;;;;;;0.00;0.00;;;;;;;13.55;100.00;99392.25;6101614;23;19952;-82
2023/01/10 12:13:21;;;;;;;0.10;0.10;;;;;;;13.28;100.00;99393.13;6100556;23;20428;-82
2023/01/10 12:15:49;;;;;;;0.00;0.00;;;;;;;13.02;100.00;99379.97;6099640;23;20029;-81
2023/01/10 12:18:18;;;;;;;0.00;0.00;;;;;;;12.90;100.00;99393.41;6101179;23;20061;-82
2023/01/10 12:20:52;;;;;;;0.00;0.00;;;;;;;12.73;100.00;99399.50;6076297;23;20383;-81
2023/01/10 12:23:42;;;;;;;;;;;;;;;;;;;;;